Time;durP1;ratioP1;P1;durP2;ratioP2;P2;SDS_P1;SDS_P2;PMS_P1;PMS_P2;Temp;Humidity;BMP_temperature;BMP_pressure;BME280_temperature;BME280_humidity;BME280_pressure;Samples;Min_cycle;Max_cycle;Signal;HPM_P1;HPM_P2
2022/02/25 00:02:07;;;;;;;0.70;0.40;;;2.80;99.90;;;;;;4897732;29;20494;-72
2022/02/25 00:04:33;;;;;;;0.70;0.40;;;2.80;99.90;;;;;;4916450;29;20179;-72
2022/02/25 00:06:59;;;;;;;0.70;0.40;;;2.80;99.90;;;;;;4916009;29;20176;-73
2022/02/25 00:09:25;;;;;;;0.70;0.50;;;2.80;99.90;;;;;;4931060;29;20427;-73
2022/02/25 00:11:50;;;;;;;0.70;0.40;;;2.80;99.90;;;;;;4930413;29;20203;-74
2022/02/25 00:14:16;;;;;;;0.70;0.40;;;2.80;99.90;;;;;;4899289;29;20207;-72
2022/02/25 00:16:41;;;;;;;0.70;0.50;;;2.80;99.90;;;;;;4897397;29;20192;-74
2022/02/25 00:19:07;;;;;;;0.70;0.50;;;2.80;99.90;;;;;;4907044;29;20186;-74
2022/02/25 00:21:33;;;;;;;0.70;0.40;;;2.80;99.90;;;;;;4916164;29;20201;-74
2022/02/25 00:23:58;;;;;;;0.70;0.40;;;2.80;99.90;;;;;;4914808;29;20464;-74
2022/02/25 00:26:24;;;;;;;0.70;0.40;;;2.90;99.90;;;;;;4930797;28;20278;-73
2022/02/25 00:28:50;;;;;;;0.70;0.50;;;2.90;99.90;;;;;;4915883;29;20174;-72
2022/02/25 00:31:15;;;;;;;0.70;0.50;;;2.90;99.90;;;;;;4915825;29;20218;-74
2022/02/25 00:33:41;;;;;;;0.70;0.40;;;2.80;99.90;;;;;;4904331;29;20208;-72
2022/02/25 00:36:07;;;;;;;0.70;0.50;;;2.90;99.90;;;;;;4902116;29;20262;-72
2022/02/25 00:38:32;;;;;;;0.70;0.50;;;2.90;99.90;;;;;;4914235;29;20192;-72
2022/02/25 00:40:58;;;;;;;0.70;0.40;;;2.90;99.90;;;;;;4915970;29;20207;-72
2022/02/25 00:43:23;;;;;;;0.70;0.50;;;2.90;99.90;;;;;;4913688;29;20555;-75
2022/02/25 00:45:49;;;;;;;0.70;0.40;;;2.90;99.90;;;;;;4914860;29;20174;-74
2022/02/25 00:48:15;;;;;;;0.70;0.47;;;2.90;99.90;;;;;;4914299;29;20182;-74
2022/02/25 00:50:40;;;;;;;0.70;0.40;;;2.90;99.90;;;;;;4915272;29;20652;-75
2022/02/25 00:53:06;;;;;;;0.70;0.50;;;2.90;99.90;;;;;;4911039;29;20203;-73
2022/02/25 00:55:31;;;;;;;0.70;0.40;;;2.90;99.90;;;;;;4911939;29;20214;-73
2022/02/25 00:57:58;;;;;;;0.70;0.40;;;2.90;99.90;;;;;;4915960;29;20544;-73
2022/02/25 01:00:24;;;;;;;0.70;0.50;;;2.90;99.90;;;;;;4915820;29;20219;-73
2022/02/25 01:02:50;;;;;;;0.70;0.50;;;2.90;99.90;;;;;;4916058;29;20420;-73
2022/02/25 01:05:15;;;;;;;0.70;0.50;;;2.90;99.90;;;;;;4915574;29;20801;-72
2022/02/25 01:07:42;;;;;;;0.70;0.50;;;2.90;99.90;;;;;;4926822;28;20216;-73
2022/02/25 01:10:11;;;;;;;0.70;0.50;;;2.90;99.90;;;;;;4899521;29;20186;-71
2022/02/25 01:12:37;;;;;;;0.70;0.50;;;2.90;99.90;;;;;;4915569;29;20448;-71
2022/02/25 01:15:04;;;;;;;0.70;0.50;;;2.90;99.90;;;;;;4915481;29;20458;-72
2022/02/25 01:17:30;;;;;;;0.80;0.70;;;2.90;99.90;;;;;;4915480;29;20404;-72
2022/02/25 01:19:59;;;;;;;0.70;0.50;;;2.90;99.90;;;;;;4915037;29;20796;-72
2022/02/25 01:22:26;;;;;;;0.70;0.40;;;2.90;99.90;;;;;;4915080;29;20565;-71
2022/02/25 01:24:52;;;;;;;0.70;0.40;;;2.90;99.90;;;;;;4915300;29;20444;-72
2022/02/25 01:27:17;;;;;;;0.70;0.40;;;2.90;99.90;;;;;;4915137;29;20449;-72
2022/02/25 01:29:43;;;;;;;0.70;0.40;;;2.90;99.90;;;;;;4915307;29;20463;-71
2022/02/25 01:32:10;;;;;;;0.70;0.50;;;2.90;99.90;;;;;;4915155;29;20995;-72
2022/02/25 01:34:36;;;;;;;0.70;0.47;;;2.90;99.90;;;;;;4915410;29;20205;-72
2022/02/25 01:37:01;;;;;;;1.20;1.03;;;2.90;99.90;;;;;;4910794;29;20423;-72
2022/02/25 01:39:27;;;;;;;0.70;0.50;;;2.90;99.90;;;;;;4915029;29;20418;-72
2022/02/25 01:41:53;;;;;;;0.70;0.50;;;2.90;99.90;;;;;;4915152;29;20447;-72
2022/02/25 01:44:24;;;;;;;0.70;0.40;;;2.90;99.90;;;;;;4915337;29;20266;-72
2022/02/25 01:46:55;;;;;;;0.70;0.40;;;2.80;99.90;;;;;;4914905;29;20235;-72
2022/02/25 01:49:23;;;;;;;0.70;0.50;;;2.80;99.90;;;;;;4913778;29;20419;-72
2022/02/25 01:51:52;;;;;;;0.70;0.40;;;2.80;99.90;;;;;;4914918;29;20447;-72
2022/02/25 01:54:18;;;;;;;0.70;0.40;;;2.80;99.90;;;;;;4915333;29;21027;-72
2022/02/25 01:56:44;;;;;;;0.70;0.50;;;2.80;99.90;;;;;;4929850;28;20431;-73
2022/02/25 01:59:11;;;;;;;0.70;0.40;;;2.80;99.90;;;;;;4914926;29;20199;-73
2022/02/25 02:01:36;;;;;;;0.70;0.40;;;2.80;99.90;;;;;;4915416;29;20448;-73
2022/02/25 02:04:03;;;;;;;0.70;0.50;;;2.80;99.90;;;;;;4916557;29;20423;-73
2022/02/25 02:06:29;;;;;;;0.70;0.50;;;2.80;99.90;;;;;;4918550;29;20944;-72
2022/02/25 02:08:55;;;;;;;0.70;0.50;;;2.70;99.90;;;;;;4917769;29;20423;-72
2022/02/25 02:11:33;;;;;;;0.70;0.47;;;2.70;99.90;;;;;;4933165;28;20438;-75
2022/02/25 02:14:01;;;;;;;0.70;0.60;;;2.70;99.90;;;;;;4917674;29;20549;-74
2022/02/25 02:16:27;;;;;;;0.70;0.47;;;2.70;99.90;;;;;;4918260;29;20424;-74
2022/02/25 02:18:53;;;;;;;0.70;0.43;;;2.70;99.90;;;;;;4917914;29;20522;-74
2022/02/25 02:21:23;;;;;;;0.70;0.40;;;2.70;99.90;;;;;;4916762;29;20518;-74
2022/02/25 02:23:48;;;;;;;0.70;0.50;;;2.70;99.90;;;;;;4918391;29;20411;-75
2022/02/25 02:26:14;;;;;;;0.70;0.40;;;2.70;99.90;;;;;;4918218;29;20435;-74
2022/02/25 02:28:39;;;;;;;0.70;0.50;;;2.70;99.90;;;;;;4918125;29;20214;-74
2022/02/25 02:31:05;;;;;;;0.70;0.40;;;2.70;99.90;;;;;;4918248;29;20206;-73
2022/02/25 02:33:31;;;;;;;0.70;0.50;;;2.70;99.90;;;;;;4916679;29;20290;-74
2022/02/25 02:35:56;;;;;;;0.70;0.40;;;2.70;99.90;;;;;;4917870;29;20176;-74
2022/02/25 02:38:22;;;;;;;0.70;0.47;;;2.60;99.90;;;;;;4917857;29;20219;-74
2022/02/25 02:40:47;;;;;;;0.70;0.40;;;2.60;99.90;;;;;;4917987;29;20676;-73
2022/02/25 02:43:13;;;;;;;0.70;0.50;;;2.70;99.90;;;;;;4918085;29;20242;-74
2022/02/25 02:45:39;;;;;;;0.70;0.43;;;2.60;99.90;;;;;;4917532;29;20178;-74
2022/02/25 02:48:05;;;;;;;0.70;0.50;;;2.60;99.90;;;;;;4932367;29;20268;-74
2022/02/25 02:50:30;;;;;;;0.70;0.50;;;2.60;99.90;;;;;;4931585;28;20878;-74
2022/02/25 02:52:56;;;;;;;0.70;0.40;;;2.60;99.90;;;;;;4928526;28;20255;-74
2022/02/25 02:55:22;;;;;;;0.70;0.40;;;2.60;99.90;;;;;;4903016;29;20211;-74
2022/02/25 02:57:49;;;;;;;0.70;0.50;;;2.50;99.90;;;;;;4917158;29;20184;-72
2022/02/25 03:00:15;;;;;;;0.70;0.50;;;2.50;99.90;;;;;;4917264;29;20256;-74
2022/02/25 03:02:40;;;;;;;0.70;0.50;;;2.50;99.90;;;;;;4932048;28;20535;-74
2022/02/25 03:05:07;;;;;;;0.70;0.50;;;2.40;99.90;;;;;;4916493;29;20183;-73
2022/02/25 03:07:33;;;;;;;0.70;0.43;;;2.40;99.90;;;;;;4897540;29;20599;-72
2022/02/25 03:09:58;;;;;;;0.70;0.40;;;2.30;99.90;;;;;;4913102;29;20487;-74
2022/02/25 03:12:24;;;;;;;0.70;0.50;;;2.30;99.90;;;;;;4917422;29;20861;-74
2022/02/25 03:14:49;;;;;;;0.70;0.50;;;2.30;99.90;;;;;;4916372;29;20214;-74
2022/02/25 03:17:15;;;;;;;0.80;0.60;;;2.20;99.90;;;;;;4898883;29;20281;-74
2022/02/25 03:19:42;;;;;;;0.70;0.50;;;2.10;99.90;;;;;;4901213;29;20315;-74
2022/02/25 03:22:08;;;;;;;0.70;0.40;;;2.10;99.90;;;;;;4911162;29;20210;-74
2022/02/25 03:24:34;;;;;;;0.70;0.40;;;2.00;99.90;;;;;;4931870;28;20420;-74
2022/02/25 03:26:59;;;;;;;0.70;0.50;;;1.90;99.90;;;;;;4898619;29;20213;-74
2022/02/25 03:29:25;;;;;;;0.70;0.50;;;1.90;99.90;;;;;;4912520;29;20187;-73
2022/02/25 03:31:50;;;;;;;0.70;0.50;;;1.90;99.90;;;;;;4912657;29;20282;-74
2022/02/25 03:34:16;;;;;;;0.70;0.50;;;1.80;99.90;;;;;;4925890;29;20262;-73
2022/02/25 03:36:42;;;;;;;0.70;0.40;;;1.80;99.90;;;;;;4898459;29;20279;-74
2022/02/25 03:39:07;;;;;;;0.70;0.40;;;1.80;99.90;;;;;;4912444;29;20215;-74
2022/02/25 03:41:33;;;;;;;0.70;0.40;;;1.80;99.90;;;;;;4902585;29;20202;-73
2022/02/25 03:43:59;;;;;;;0.70;0.40;;;1.80;99.90;;;;;;4911251;29;20275;-74
2022/02/25 03:46:24;;;;;;;0.70;0.50;;;1.80;99.90;;;;;;4911067;29;20191;-74
2022/02/25 03:48:53;;;;;;;0.70;0.50;;;1.80;99.90;;;;;;4916568;29;20449;-74
2022/02/25 03:51:21;;;;;;;0.70;0.40;;;1.80;99.90;;;;;;4916537;29;20581;-75
2022/02/25 03:53:47;;;;;;;0.70;0.40;;;1.70;99.90;;;;;;4903000;29;20460;-74
2022/02/25 03:56:13;;;;;;;0.70;0.50;;;1.70;99.90;;;;;;4912402;29;20420;-74
2022/02/25 03:58:39;;;;;;;0.70;0.40;;;1.70;99.90;;;;;;4911844;29;20503;-74
2022/02/25 04:01:04;;;;;;;0.70;0.40;;;1.70;99.90;;;;;;4897843;29;20669;-74
2022/02/25 04:03:30;;;;;;;0.70;0.40;;;1.70;99.90;;;;;;4908269;29;20708;-73
2022/02/25 04:05:55;;;;;;;0.70;0.40;;;1.70;99.90;;;;;;4916596;29;20171;-73
2022/02/25 04:08:21;;;;;;;0.70;0.40;;;1.70;99.90;;;;;;4916738;29;20166;-74
2022/02/25 04:10:46;;;;;;;0.70;0.40;;;1.70;99.90;;;;;;4930650;28;20178;-74
2022/02/25 04:13:12;;;;;;;0.70;0.47;;;1.70;99.90;;;;;;4912657;29;20177;-74
2022/02/25 04:15:38;;;;;;;0.70;0.50;;;1.70;99.90;;;;;;4916461;29;20209;-74
2022/02/25 04:18:04;;;;;;;0.70;0.50;;;1.70;99.90;;;;;;4902354;29;20188;-74
2022/02/25 04:20:29;;;;;;;0.70;0.40;;;1.60;99.90;;;;;;4897145;29;20528;-74
2022/02/25 04:22:55;;;;;;;0.70;0.50;;;1.60;99.90;;;;;;4900095;29;20203;-74
2022/02/25 04:25:21;;;;;;;0.70;0.50;;;1.60;99.90;;;;;;4916089;29;20794;-73
2022/02/25 04:27:46;;;;;;;0.70;0.40;;;1.60;99.90;;;;;;4915799;29;20186;-74
2022/02/25 04:30:13;;;;;;;0.70;0.50;;;1.50;99.90;;;;;;4916052;29;20184;-74
2022/02/25 04:32:38;;;;;;;0.70;0.40;;;1.50;99.90;;;;;;4908453;29;20743;-73
2022/02/25 04:35:05;;;;;;;0.70;0.43;;;1.50;99.90;;;;;;4899790;29;20485;-74
2022/02/25 04:37:31;;;;;;;0.70;0.50;;;1.50;99.90;;;;;;4916190;29;20168;-73
2022/02/25 04:39:56;;;;;;;0.70;0.43;;;1.50;99.90;;;;;;4915792;29;20494;-74
2022/02/25 04:42:23;;;;;;;0.70;0.40;;;1.50;99.90;;;;;;4910738;29;20531;-74
2022/02/25 04:44:48;;;;;;;0.70;0.40;;;1.50;99.90;;;;;;4897113;29;20173;-74
2022/02/25 04:47:14;;;;;;;0.70;0.50;;;1.50;99.90;;;;;;4917209;29;20530;-74
2022/02/25 04:49:39;;;;;;;0.70;0.40;;;1.50;99.90;;;;;;4915684;29;20168;-74
2022/02/25 04:52:06;;;;;;;0.70;0.50;;;1.50;99.90;;;;;;4906013;29;20196;-74
2022/02/25 04:54:32;;;;;;;0.70;0.40;;;1.50;99.90;;;;;;4915725;29;20206;-74
2022/02/25 04:56:58;;;;;;;0.70;0.40;;;1.50;99.90;;;;;;4916035;29;20829;-74
2022/02/25 04:59:23;;;;;;;0.70;0.50;;;1.60;99.90;;;;;;4915325;29;20445;-74
2022/02/25 05:01:49;;;;;;;0.70;0.47;;;1.60;99.90;;;;;;4913692;29;20202;-73
2022/02/25 05:04:14;;;;;;;0.70;0.47;;;1.70;99.90;;;;;;4896873;29;20190;-74
2022/02/25 05:06:40;;;;;;;0.70;0.40;;;1.70;99.90;;;;;;4902454;29;20282;-74
2022/02/25 05:09:06;;;;;;;0.70;0.40;;;1.70;99.90;;;;;;4915471;29;20179;-74
2022/02/25 05:11:31;;;;;;;0.70;0.40;;;1.80;99.90;;;;;;4928519;28;20454;-73
2022/02/25 05:13:57;;;;;;;0.70;0.40;;;1.90;99.90;;;;;;4907953;29;20294;-74
2022/02/25 05:21:51;;;;;;;0.70;0.50;;;2.10;99.90;;;;;;4915213;29;20418;-74
2022/02/25 05:24:17;;;;;;;0.70;0.50;;;2.10;99.90;;;;;;4924991;29;20435;-74
2022/02/25 05:26:42;;;;;;;0.70;0.50;;;2.20;99.90;;;;;;4927140;28;20176;-74
2022/02/25 05:29:08;;;;;;;0.70;0.50;;;2.30;99.90;;;;;;4912064;29;20325;-73
2022/02/25 05:31:34;;;;;;;0.70;0.40;;;2.30;99.90;;;;;;4914347;29;21004;-73
2022/02/25 05:33:59;;;;;;;0.70;0.50;;;2.40;99.90;;;;;;4912738;28;20638;-74
2022/02/25 05:36:25;;;;;;;0.70;0.50;;;2.40;99.90;;;;;;4911555;29;21001;-74
2022/02/25 05:38:50;;;;;;;0.70;0.50;;;2.40;99.90;;;;;;4915889;29;20547;-74
2022/02/25 05:41:17;;;;;;;0.70;0.50;;;2.50;99.90;;;;;;4919050;29;20291;-72
2022/02/25 05:43:43;;;;;;;0.90;0.53;;;2.50;99.90;;;;;;4919052;29;20175;-73
2022/02/25 05:46:09;;;;;;;0.70;0.50;;;2.60;99.90;;;;;;4910952;29;20434;-73
2022/02/25 05:48:34;;;;;;;0.70;0.50;;;2.60;99.90;;;;;;4912627;29;20167;-72
2022/02/25 05:51:00;;;;;;;0.70;0.50;;;2.60;99.90;;;;;;4918371;29;20941;-74
2022/02/25 05:53:25;;;;;;;0.70;0.47;;;2.70;99.90;;;;;;4918035;29;20192;-76
2022/02/25 05:55:51;;;;;;;0.70;0.40;;;2.70;99.90;;;;;;4917255;29;20203;-73
2022/02/25 05:58:16;;;;;;;0.70;0.40;;;2.70;99.90;;;;;;4933079;28;20191;-72
2022/02/25 06:00:42;;;;;;;0.70;0.40;;;2.80;99.90;;;;;;4918153;29;20195;-74
2022/02/25 06:03:08;;;;;;;0.70;0.40;;;2.80;99.90;;;;;;4917466;29;20289;-74
2022/02/25 06:05:33;;;;;;;0.70;0.40;;;2.80;99.90;;;;;;4918071;29;20261;-74
2022/02/25 06:08:00;;;;;;;0.70;0.50;;;2.80;99.90;;;;;;4918773;29;20175;-73
2022/02/25 06:10:26;;;;;;;0.80;0.70;;;2.80;99.90;;;;;;4918203;29;20233;-74
2022/02/25 06:12:52;;;;;;;0.70;0.40;;;2.90;99.90;;;;;;4917012;29;20455;-74
2022/02/25 06:15:18;;;;;;;0.70;0.50;;;2.90;99.90;;;;;;4917192;29;20469;-74
2022/02/25 06:17:49;;;;;;;0.70;0.40;;;2.90;99.90;;;;;;4915224;29;20441;-74
2022/02/25 06:20:19;;;;;;;0.70;0.40;;;3.00;99.90;;;;;;4905845;29;20253;-74
2022/02/25 06:22:46;;;;;;;3.40;2.40;;;3.00;99.90;;;;;;4901345;29;20564;-74
2022/02/25 06:25:12;;;;;;;0.70;0.50;;;3.00;99.90;;;;;;4900309;29;20428;-73
2022/02/25 06:27:38;;;;;;;0.70;0.50;;;3.10;99.90;;;;;;4900413;29;20439;-72
2022/02/25 06:30:07;;;;;;;0.70;0.50;;;3.20;99.90;;;;;;4916339;29;20463;-74
2022/02/25 06:32:33;;;;;;;0.70;0.40;;;3.20;99.90;;;;;;4912676;29;20825;-74
2022/02/25 06:34:58;;;;;;;0.70;0.50;;;3.30;99.90;;;;;;4900693;29;20468;-73
2022/02/25 06:37:26;;;;;;;0.70;0.50;;;3.40;99.90;;;;;;4904428;29;20183;-74
2022/02/25 06:39:51;;;;;;;0.70;0.40;;;3.40;99.90;;;;;;4898892;29;20237;-74
2022/02/25 06:42:17;;;;;;;0.70;0.47;;;3.50;99.90;;;;;;4899406;29;21127;-74
2022/02/25 06:44:42;;;;;;;0.70;0.50;;;3.50;99.90;;;;;;4901045;29;20194;-74
2022/02/25 06:47:08;;;;;;;0.70;0.50;;;3.60;99.90;;;;;;4903630;29;20201;-73
2022/02/25 06:49:33;;;;;;;0.70;0.50;;;3.70;99.90;;;;;;4915887;29;20193;-74
2022/02/25 06:51:59;;;;;;;0.70;0.50;;;3.70;99.90;;;;;;4917831;29;20564;-73
2022/02/25 06:54:25;;;;;;;0.70;0.50;;;3.80;99.90;;;;;;4917811;29;20206;-74
2022/02/25 06:56:51;;;;;;;0.70;0.43;;;3.80;99.90;;;;;;4915331;29;20435;-74
2022/02/25 06:59:16;;;;;;;0.70;0.50;;;3.90;99.90;;;;;;4898564;29;20432;-73
2022/02/25 07:01:42;;;;;;;0.70;0.50;;;3.90;99.90;;;;;;4930567;29;20196;-74
2022/02/25 07:04:07;;;;;;;0.70;0.50;;;3.90;99.90;;;;;;4917696;29;20180;-74
2022/02/25 07:06:37;;;;;;;0.70;0.40;;;3.90;99.90;;;;;;4900210;29;20191;-72
2022/02/25 07:09:04;;;;;;;1.63;0.77;;;4.00;99.90;;;;;;4899338;29;20188;-74
2022/02/25 07:11:29;;;;;;;0.70;0.50;;;4.00;99.90;;;;;;4901919;29;20455;-74
2022/02/25 07:13:55;;;;;;;0.70;0.40;;;4.00;99.90;;;;;;4914113;29;20541;-74
2022/02/25 07:16:20;;;;;;;0.70;0.50;;;4.20;99.90;;;;;;4930401;28;20184;-73
2022/02/25 07:18:46;;;;;;;1.80;1.70;;;4.30;99.90;;;;;;4900425;29;20186;-74
2022/02/25 07:21:12;;;;;;;0.70;0.40;;;4.40;99.90;;;;;;4911421;29;20224;-74
2022/02/25 07:23:39;;;;;;;0.70;0.50;;;4.50;99.90;;;;;;4917372;29;20190;-74
2022/02/25 07:26:06;;;;;;;0.70;0.50;;;4.60;99.90;;;;;;4932180;28;20416;-72
2022/02/25 07:28:31;;;;;;;0.70;0.50;;;4.70;99.90;;;;;;4903347;29;20424;-73
2022/02/25 07:30:57;;;;;;;0.70;0.50;;;4.80;99.90;;;;;;4906865;29;20444;-72
2022/02/25 07:33:23;;;;;;;0.70;0.50;;;4.80;99.90;;;;;;4916115;29;20544;-74
2022/02/25 07:35:48;;;;;;;0.70;0.47;;;4.90;99.90;;;;;;4917003;29;20199;-74
2022/02/25 07:38:14;;;;;;;0.70;0.43;;;5.00;99.90;;;;;;4905703;29;21249;-74
2022/02/25 07:40:39;;;;;;;0.70;0.50;;;5.10;99.90;;;;;;4913411;29;20176;-74
2022/02/25 07:43:05;;;;;;;0.70;0.50;;;5.10;99.90;;;;;;4910194;29;20199;-72
2022/02/25 07:45:31;;;;;;;0.70;0.50;;;5.20;99.90;;;;;;4916819;29;20186;-73
2022/02/25 07:47:56;;;;;;;0.70;0.40;;;5.20;99.90;;;;;;4931043;28;20182;-73
2022/02/25 07:50:22;;;;;;;0.70;0.50;;;5.20;99.90;;;;;;4913370;29;20183;-73
2022/02/25 07:52:48;;;;;;;2.63;2.43;;;5.20;99.90;;;;;;4915091;29;20259;-73
2022/02/25 07:55:14;;;;;;;0.80;0.80;;;5.20;99.90;;;;;;4916385;29;20463;-72
2022/02/25 07:57:41;;;;;;;0.70;0.50;;;5.30;99.90;;;;;;4907050;29;20172;-74
2022/02/25 08:00:09;;;;;;;0.70;0.50;;;5.30;99.90;;;;;;4911965;29;20464;-73
2022/02/25 08:02:35;;;;;;;0.70;0.40;;;5.40;99.90;;;;;;4898070;29;20451;-73
2022/02/25 08:05:01;;;;;;;0.70;0.50;;;5.40;99.90;;;;;;4897486;29;20433;-73
2022/02/25 08:07:27;;;;;;;0.70;0.50;;;5.60;99.90;;;;;;4923637;29;20425;-73
2022/02/25 08:09:53;;;;;;;0.70;0.50;;;5.70;99.90;;;;;;4914950;29;20179;-73
2022/02/25 08:12:19;;;;;;;0.70;0.50;;;5.80;99.90;;;;;;4913206;29;20199;-73
2022/02/25 08:14:44;;;;;;;1.30;0.90;;;5.90;99.90;;;;;;4902684;29;20556;-74
2022/02/25 08:17:10;;;;;;;0.70;0.50;;;6.00;99.90;;;;;;4902398;29;20180;-73
2022/02/25 08:19:35;;;;;;;0.70;0.40;;;6.10;99.90;;;;;;4915476;29;20176;-71
2022/02/25 08:22:01;;;;;;;0.70;0.50;;;6.20;99.90;;;;;;4930484;28;20195;-71
2022/02/25 08:24:27;;;;;;;0.70;0.50;;;6.40;99.90;;;;;;4916107;29;20175;-71
2022/02/25 08:26:52;;;;;;;0.70;0.50;;;6.50;99.90;;;;;;4912413;29;20420;-71
2022/02/25 08:29:18;;;;;;;0.70;0.50;;;6.80;99.90;;;;;;4897100;29;20216;-71
2022/02/25 08:31:45;;;;;;;0.70;0.50;;;6.90;99.90;;;;;;4915693;29;20231;-70
2022/02/25 08:34:11;;;;;;;0.70;0.50;;;7.00;99.90;;;;;;4916013;29;20191;-74
2022/02/25 08:36:36;;;;;;;0.70;0.50;;;7.00;99.90;;;;;;4929238;28;20412;-72
2022/02/25 08:39:04;;;;;;;0.70;0.50;;;7.00;99.90;;;;;;4914895;29;20459;-71
2022/02/25 08:41:29;;;;;;;0.70;0.50;;;7.00;99.90;;;;;;4915067;29;20195;-71
2022/02/25 08:43:55;;;;;;;2.37;0.67;;;7.00;99.90;;;;;;4915831;29;20430;-72
2022/02/25 08:46:22;;;;;;;0.70;0.50;;;7.00;99.90;;;;;;4928332;28;20296;-71
2022/02/25 08:48:49;;;;;;;0.70;0.50;;;7.00;99.90;;;;;;4901453;29;20429;-72
2022/02/25 08:51:14;;;;;;;0.70;0.50;;;7.10;99.90;;;;;;4908058;29;20440;-71
2022/02/25 08:53:40;;;;;;;1.33;0.70;;;7.20;99.90;;;;;;4897994;29;20435;-71
2022/02/25 08:56:08;;;;;;;0.70;0.50;;;7.30;99.90;;;;;;4911233;29;20196;-73
2022/02/25 08:58:34;;;;;;;0.70;0.50;;;7.30;99.90;;;;;;4897458;29;20252;-72
2022/02/25 09:00:59;;;;;;;0.80;0.70;;;7.30;99.90;;;;;;4898279;29;20421;-72
2022/02/25 09:03:25;;;;;;;4.80;1.10;;;7.30;99.90;;;;;;4897450;29;20978;-72
2022/02/25 09:05:50;;;;;;;1.30;1.03;;;7.30;99.90;;;;;;4899413;29;20993;-73
2022/02/25 09:08:16;;;;;;;0.70;0.50;;;7.20;99.90;;;;;;4916060;29;20194;-74
2022/02/25 09:10:44;;;;;;;0.70;0.50;;;7.20;99.90;;;;;;4915495;29;20168;-71
2022/02/25 09:13:10;;;;;;;0.70;0.50;;;7.10;99.90;;;;;;4917043;29;20418;-72
2022/02/25 09:15:36;;;;;;;0.70;0.47;;;7.10;99.90;;;;;;4917642;29;20828;-71
2022/02/25 09:18:04;;;;;;;0.70;0.50;;;7.00;99.90;;;;;;4904500;29;20226;-72
2022/02/25 09:20:30;;;;;;;0.70;0.50;;;7.00;99.90;;;;;;4919348;29;20163;-74
2022/02/25 09:22:57;;;;;;;0.70;0.50;;;7.00;99.90;;;;;;4919459;29;20431;-74
2022/02/25 09:25:24;;;;;;;0.70;0.50;;;7.20;99.90;;;;;;4919478;29;20541;-75
2022/02/25 09:27:49;;;;;;;0.70;0.50;;;7.50;99.90;;;;;;4902422;29;20428;-71
2022/02/25 09:30:15;;;;;;;0.70;0.60;;;7.70;99.90;;;;;;4905215;29;20437;-71
2022/02/25 09:32:41;;;;;;;0.70;0.50;;;7.90;99.90;;;;;;4919179;29;20196;-71
2022/02/25 09:35:08;;;;;;;1.20;0.63;;;8.00;99.90;;;;;;4917985;29;20522;-72
2022/02/25 09:37:35;;;;;;;0.70;0.50;;;8.10;99.90;;;;;;4900436;29;20433;-71
2022/02/25 09:40:04;;;;;;;0.70;0.50;;;8.20;99.90;;;;;;4901007;29;20423;-71
2022/02/25 09:42:30;;;;;;;1.80;1.33;;;8.30;99.90;;;;;;4906233;29;20439;-72
2022/02/25 09:44:55;;;;;;;0.70;0.50;;;8.40;99.90;;;;;;4932942;28;20539;-71
2022/02/25 09:47:24;;;;;;;0.70;0.50;;;8.60;99.90;;;;;;4918319;29;20183;-71
2022/02/25 09:49:50;;;;;;;0.70;0.50;;;8.60;99.90;;;;;;4918814;29;20525;-71
2022/02/25 09:52:17;;;;;;;0.70;0.50;;;8.80;99.90;;;;;;4901336;29;20657;-72
2022/02/25 09:54:43;;;;;;;0.70;0.50;;;8.90;99.90;;;;;;4905410;29;20459;-72
2022/02/25 09:57:09;;;;;;;0.70;0.50;;;9.10;99.90;;;;;;4918951;29;20423;-71
2022/02/25 09:59:35;;;;;;;0.70;0.50;;;9.40;99.90;;;;;;4918666;29;20439;-71
2022/02/25 10:02:06;;;;;;;0.70;0.50;;;9.60;99.90;;;;;;4917311;29;20615;-72
2022/02/25 10:04:33;;;;;;;0.70;0.50;;;9.80;99.90;;;;;;4918818;29;20447;-71
2022/02/25 10:06:59;;;;;;;0.80;0.80;;;10.00;99.90;;;;;;4918565;29;20854;-72
2022/02/25 10:09:35;;;;;;;0.70;0.50;;;10.10;99.90;;;;;;4918416;29;20422;-72
2022/02/25 10:12:09;;;;;;;0.77;0.63;;;10.40;99.90;;;;;;4917076;29;20540;-71
2022/02/25 10:14:46;;;;;;;3.73;0.73;;;10.80;99.90;;;;;;4918569;29;20472;-71
2022/02/25 10:17:22;;;;;;;0.70;0.50;;;11.50;99.90;;;;;;4913765;29;20427;-72
2022/02/25 10:19:57;;;;;;;0.70;0.50;;;11.90;99.90;;;;;;4918293;29;20407;-71
2022/02/25 10:22:27;;;;;;;0.70;0.50;;;12.40;99.90;;;;;;4917085;29;20534;-71
2022/02/25 10:25:02;;;;;;;0.70;0.60;;;13.40;99.90;;;;;;4917250;29;20438;-72
2022/02/25 10:27:44;;;;;;;0.80;0.77;;;14.40;99.90;;;;;;4918370;29;20411;-72
2022/02/25 10:30:16;;;;;;;0.80;0.60;;;16.20;99.90;;;;;;4913937;29;20439;-72
2022/02/25 10:32:50;;;;;;;1.03;0.90;;;17.70;99.90;;;;;;4899445;29;21008;-72
2022/02/25 10:35:24;;;;;;;2.40;0.70;;;19.40;95.30;;;;;;4899332;29;20982;-72
2022/02/25 10:37:54;;;;;;;0.80;0.60;;;20.30;83.00;;;;;;4899352;29;20777;-73
2022/02/25 10:40:20;;;;;;;0.80;0.63;;;20.80;71.30;;;;;;4899758;29;20420;-72
2022/02/25 10:42:45;;;;;;;1.33;1.00;;;21.20;66.30;;;;;;4917883;29;20965;-75
2022/02/25 10:45:11;;;;;;;0.70;0.50;;;20.60;60.60;;;;;;4907074;29;20531;-75
2022/02/25 10:47:36;;;;;;;2.03;0.70;;;19.80;58.60;;;;;;4899151;29;20266;-75
2022/02/25 10:50:17;;;;;;;3.90;1.10;;;18.90;58.90;;;;;;4913283;29;20199;-75
2022/02/25 10:52:45;;;;;;;0.70;0.60;;;18.20;59.60;;;;;;4903008;29;20204;-75
2022/02/25 10:55:16;;;;;;;0.73;0.57;;;17.50;61.10;;;;;;4915502;29;20474;-73
2022/02/25 10:57:41;;;;;;;0.80;0.60;;;16.90;62.30;;;;;;4917728;29;20495;-74
2022/02/25 11:00:11;;;;;;;0.70;0.50;;;16.30;62.80;;;;;;4916688;29;20502;-74
2022/02/25 11:02:41;;;;;;;5.03;0.70;;;15.70;64.70;;;;;;4904223;29;20567;-73
2022/02/25 11:05:18;;;;;;;0.80;0.60;;;15.10;66.40;;;;;;4917953;29;20436;-73
2022/02/25 11:07:47;;;;;;;0.70;0.50;;;14.60;68.30;;;;;;4917894;29;20427;-73
2022/02/25 11:10:15;;;;;;;1.77;1.00;;;14.20;71.10;;;;;;4916069;29;20425;-75
2022/02/25 11:12:44;;;;;;;0.77;0.57;;;14.00;73.20;;;;;;4900833;29;21045;-73
2022/02/25 11:15:15;;;;;;;0.70;0.50;;;13.80;76.30;;;;;;4898557;29;20547;-74
2022/02/25 11:17:43;;;;;;;0.70;0.50;;;13.70;77.50;;;;;;4899693;29;20448;-74
2022/02/25 11:20:09;;;;;;;0.80;0.80;;;13.60;80.20;;;;;;4902202;29;20424;-73
2022/02/25 11:22:41;;;;;;;0.80;0.77;;;13.40;81.50;;;;;;4913544;29;20448;-75
2022/02/25 11:25:12;;;;;;;0.70;0.50;;;13.20;83.50;;;;;;4917249;29;20412;-75
2022/02/25 11:27:38;;;;;;;0.70;0.50;;;13.10;86.10;;;;;;4917333;29;20444;-75
2022/02/25 11:30:19;;;;;;;0.90;0.90;;;13.20;87.60;;;;;;4916995;29;20778;-75
2022/02/25 11:32:58;;;;;;;1.33;1.23;;;13.40;89.70;;;;;;4905276;29;20859;-73
2022/02/25 11:35:32;;;;;;;1.00;0.90;;;14.50;91.20;;;;;;4932301;28;20872;-73
2022/02/25 11:38:06;;;;;;;0.80;0.60;;;15.70;89.70;;;;;;4916672;29;20419;-75
2022/02/25 11:40:54;;;;;;;0.70;0.50;;;16.00;84.00;;;;;;4914422;29;20428;-75
2022/02/25 11:43:31;;;;;;;0.80;0.73;;;16.10;77.90;;;;;;4922834;29;20419;-73
2022/02/25 11:45:57;;;;;;;0.90;0.80;;;16.20;77.60;;;;;;4899108;29;20515;-74
2022/02/25 11:48:36;;;;;;;1.07;0.83;;;16.80;77.20;;;;;;4898564;29;20937;-73
2022/02/25 11:51:02;;;;;;;0.70;0.50;;;16.80;73.10;;;;;;4899007;29;20179;-74
2022/02/25 11:53:28;;;;;;;1.30;1.20;;;16.30;70.80;;;;;;4898338;29;20432;-73
2022/02/25 11:56:12;;;;;;;0.70;0.50;;;15.70;70.50;;;;;;4911894;29;20534;-75
2022/02/25 11:58:46;;;;;;;0.70;0.53;;;15.10;71.70;;;;;;4916649;29;20428;-73
2022/02/25 12:01:15;;;;;;;0.73;0.57;;;14.60;75.60;;;;;;4907384;29;20969;-71
2022/02/25 12:04:00;;;;;;;0.80;0.60;;;14.80;80.00;;;;;;4897636;29;20408;-73
2022/02/25 12:06:59;;;;;;;1.00;0.67;;;15.10;79.60;;;;;;4911907;29;20427;-72
2022/02/25 12:09:49;;;;;;;0.70;0.60;;;15.70;82.20;;;;;;4916326;29;20774;-72
2022/02/25 12:12:23;;;;;;;4.47;1.57;;;17.50;80.00;;;;;;4898199;29;21185;-72
2022/02/25 12:15:15;;;;;;;1.00;0.87;;;19.20;73.50;;;;;;4897507;29;20558;-72
2022/02/25 12:17:56;;;;;;;0.70;0.60;;;19.40;66.10;;;;;;4897630;29;21107;-72
2022/02/25 12:20:33;;;;;;;3.67;0.87;;;20.40;63.60;;;;;;4912085;29;20855;-73
2022/02/25 12:23:20;;;;;;;1.00;0.80;;;22.30;60.80;;;;;;4916294;29;20494;-74
2022/02/25 12:25:55;;;;;;;1.47;0.70;;;22.80;56.20;;;;;;4916293;29;20400;-72
2022/02/25 12:28:31;;;;;;;1.27;0.90;;;23.10;54.50;;;;;;4915193;29;20425;-73
2022/02/25 12:31:07;;;;;;;0.80;0.50;;;24.50;53.50;;;;;;4914186;29;20438;-73
2022/02/25 12:33:40;;;;;;;1.33;1.23;;;26.10;51.90;;;;;;4916106;29;20404;-73
2022/02/25 12:36:35;;;;;;;0.80;0.70;;;26.40;47.50;;;;;;4916054;29;20455;-73
2022/02/25 12:39:10;;;;;;;0.90;0.80;;;25.30;45.90;;;;;;4898653;29;20561;-72
2022/02/25 12:41:45;;;;;;;1.20;1.10;;;23.40;45.90;;;;;;4907061;29;20451;-73
2022/02/25 12:44:12;;;;;;;1.20;0.70;;;21.80;46.90;;;;;;4912308;29;20470;-72
2022/02/25 12:46:41;;;;;;;0.80;0.70;;;20.30;48.20;;;;;;4916681;29;20427;-73
2022/02/25 12:49:15;;;;;;;0.80;0.50;;;18.80;49.90;;;;;;4896836;29;20476;-72
2022/02/25 12:51:43;;;;;;;0.70;0.50;;;17.50;51.70;;;;;;4913089;29;20451;-72
2022/02/25 12:54:14;;;;;;;0.70;0.50;;;16.20;53.90;;;;;;4914058;29;20463;-74
2022/02/25 12:56:45;;;;;;;0.90;0.60;;;15.10;56.30;;;;;;4915397;29;20471;-73
2022/02/25 12:59:13;;;;;;;0.70;0.50;;;14.10;58.80;;;;;;4913009;29;20442;-73
2022/02/25 13:01:53;;;;;;;0.80;0.60;;;13.20;62.40;;;;;;4899008;29;20926;-75
2022/02/25 13:04:24;;;;;;;0.70;0.50;;;12.40;68.70;;;;;;4896923;29;20507;-75